Twenthe, Netherlands
Current Conditions -  °F | °C
As of 5:20 AM on Thursday 29 Jan 2015 (Local Time) from EDDG Reporting Station
Clear Clear  
Wind Chill: 26°   Ceiling: Unl
Heat Index: 36°   Visibility: 6mi
Dew Point: 30°   Wind: 16mph
Humidity: 81%   Direction: 220°SW
Pressure: 29.26"   Gusts: NA
Location:  52.27°N, 6.9°E
Report Text: EDDG 290420Z 22014KT CAVOK 02/M01 Q0991 TEMPO 22015G25KT 2000 SHSN BKN007CB
Loading
Personal Weather Stations






























Interactive Weather Map New forecast layout! Learn more

10-Day Weather Forecast

Advertisements
Track Severe Weather on mobile